Johns Island, SC (29455)

2:36 AM EST on January 21, 2017 (GMT -0500)
barbarywoods | | Change Station

Elev 43 ft 32.74 °N, 80.05 °W | Updated 20 seconds ago

Light Drizzle
Light Drizzle
63.9 °F
Feels Like 63.9 °F
N
0.0
Wind Variable Wind from NNE

Today
High -- | Low -- °F
--% Chance of Precip.
Yesterday
High -- | Low -- °F
Precip. -- in
Pressure 29.91 in
Visibility 3.0 miles
Clouds Few 2500 ft
Scattered Clouds 3500 ft
Mostly Cloudy 4900 ft
Dew Point 63 °F
Humidity 98%
Rainfall 0.00 in
Snow Depth Not available.
7:20 AM 5:42 PM
Last Quarter, 37% visible
METAR KJZI 210715Z AUTO 00000KT 3SM -DZ FEW025 SCT035 BKN049 19/18 A2991 RMK AO2
Pressure 29.91 in
Visibility 3.0 miles
Clouds Few 2500 ft
Scattered Clouds 3500 ft
Mostly Cloudy 4900 ft
Dew Point 63 °F
Humidity 98%
Rainfall 0.00 in
Snow Depth Not available.
7:20 AM 5:42 PM
Last Quarter, 37% visible
METAR KJZI 210715Z AUTO 00000KT 3SM -DZ FEW025 SCT035 BKN049 19/18 A2991 RMK AO2

Get Your Daily Forecast Email!

Thanks for signing up!

Be on the lookout for a verification email in your inbox.

You'll start receiving the daily forecast at 8 AM.

×

10-Day Weather Forecast

Almanac

Astronomy

Jan. 21, 2017 Rise Set
Actual Time
Civil Twilight
Nautical Twilight
Astronomical Twilight
Moon
Length of Visible Light
Length of Day
Tomorrow will be .
, % of the Moon is Illuminated

Today's Extremes

State Highs State Lows

Community

WunderPhotos

Upload Photos

1,962,540 photos uploaded!

WunderBlog® & News

Nearby

Air Quality

  Air Quality AQ Index Pollutant
Not available.

Snow Depth

Station Depth Elevation

Earthquake Activity

City Distance Mag. Time & Date
Minimum magnitude displayed is 2.5.

Coastal Water Temperatures

Place Temperature

Stations

Nearby Weather Stations

Station Location Temp. Windchill Dew Point Humidity Wind Precip. Elev Updated Type
                   

Watches & Warnings

There are currently no watches in effect.